createdAt,value
2017-09-17T00:00:59.864Z,100
2017-09-17T00:02:00.583Z,100
2017-09-17T00:03:01.306Z,100
2017-09-17T00:04:02.027Z,100
2017-09-17T00:05:02.744Z,100
2017-09-17T00:06:03.484Z,100
2017-09-17T00:07:04.227Z,100
2017-09-17T00:08:04.967Z,100
2017-09-17T00:09:05.687Z,100
2017-09-17T00:10:06.406Z,100
2017-09-17T00:11:07.127Z,100
2017-09-17T00:12:07.868Z,100
2017-09-17T00:13:08.589Z,100
2017-09-17T00:15:09.958Z,100
2017-09-17T00:16:10.676Z,100
2017-09-17T00:17:11.422Z,100
2017-09-17T00:18:12.139Z,100
2017-09-17T00:19:12.859Z,100
2017-09-17T00:20:13.600Z,100
2017-09-17T00:21:14.341Z,100
2017-09-17T00:22:15.083Z,100
2017-09-17T00:23:15.801Z,100
2017-09-17T00:24:16.520Z,100
2017-09-17T00:25:17.261Z,100
2017-09-17T00:26:17.981Z,100
2017-09-17T00:27:18.711Z,100
2017-09-17T00:28:19.441Z,100
2017-09-17T00:29:20.164Z,100
2017-09-17T00:30:20.882Z,100
2017-09-17T00:31:21.626Z,100
2017-09-17T00:32:22.362Z,100
2017-09-17T00:33:23.083Z,100
2017-09-17T00:34:23.803Z,100
2017-09-17T00:35:24.524Z,100
2017-09-17T00:36:25.240Z,100
2017-09-17T00:37:25.964Z,100
2017-09-17T00:38:26.683Z,100
2017-09-17T00:39:27.432Z,100
2017-09-17T00:40:28.120Z,100
2017-09-17T00:41:28.840Z,100
2017-09-17T00:42:29.561Z,100
2017-09-17T00:43:30.277Z,100
2017-09-17T00:44:30.995Z,100
2017-09-17T00:45:31.714Z,100
2017-09-17T00:46:32.437Z,100
2017-09-17T00:47:33.154Z,100
2017-09-17T00:48:33.873Z,100
2017-09-17T00:49:34.595Z,100
2017-09-17T00:50:35.335Z,100
2017-09-17T00:51:36.052Z,100
2017-09-17T00:52:36.771Z,100
2017-09-17T00:53:37.486Z,100
2017-09-17T00:54:38.203Z,100
2017-09-17T00:55:38.922Z,100
2017-09-17T00:56:39.640Z,100
2017-09-17T00:57:40.381Z,100
2017-09-17T00:58:41.101Z,100
2017-09-17T00:59:41.819Z,100
2017-09-17T01:00:42.539Z,100
2017-09-17T01:01:43.258Z,100
2017-09-17T01:02:43.976Z,100
2017-09-17T01:03:44.696Z,100
2017-09-17T01:04:45.413Z,100
2017-09-17T01:05:46.134Z,100
2017-09-17T01:06:46.852Z,100
2017-09-17T01:07:47.590Z,100
2017-09-17T01:08:48.306Z,100
2017-09-17T01:09:49.028Z,100
2017-09-17T01:10:49.747Z,100
2017-09-17T01:11:50.462Z,100
2017-09-17T01:12:51.183Z,100
2017-09-17T01:13:51.902Z,100
2017-09-17T01:14:52.639Z,100
2017-09-17T01:15:53.381Z,100
2017-09-17T01:16:54.097Z,100
2017-09-17T01:17:54.816Z,100
2017-09-17T01:18:55.556Z,100
2017-09-17T01:19:56.274Z,100
2017-09-17T01:20:56.997Z,100
2017-09-17T01:21:57.711Z,100
2017-09-17T01:22:58.432Z,100
2017-09-17T01:23:59.146Z,100
2017-09-17T01:24:59.868Z,100
2017-09-17T01:26:00.584Z,100
2017-09-17T01:27:01.305Z,100
2017-09-17T01:28:02.023Z,100
2017-09-17T01:29:02.743Z,100
2017-09-17T01:30:03.464Z,100
2017-09-17T01:31:04.179Z,100
2017-09-17T01:32:04.898Z,100
2017-09-17T01:33:05.616Z,100
2017-09-17T01:34:06.333Z,100
2017-09-17T01:35:07.050Z,100
2017-09-17T01:36:07.768Z,100
2017-09-17T01:37:08.505Z,100
2017-09-17T01:38:09.224Z,100
2017-09-17T01:39:09.945Z,100
2017-09-17T01:40:10.665Z,100
2017-09-17T01:41:11.385Z,100
2017-09-17T01:42:12.099Z,100
2017-09-17T01:43:12.818Z,100
2017-09-17T01:44:13.537Z,100
2017-09-17T01:45:14.257Z,100
2017-09-17T01:46:14.997Z,100
2017-09-17T01:47:15.717Z,100
2017-09-17T01:48:16.429Z,100
2017-09-17T01:49:17.169Z,100
2017-09-17T01:50:17.887Z,100
2017-09-17T01:51:18.607Z,100
2017-09-17T01:52:19.326Z,100
2017-09-17T01:53:20.042Z,100
2017-09-17T01:54:20.760Z,100
2017-09-17T01:55:21.500Z,100
2017-09-17T01:56:22.221Z,100
2017-09-17T01:57:22.937Z,100
2017-09-17T01:58:23.679Z,100
2017-09-17T01:59:24.419Z,100
2017-09-17T02:00:25.149Z,100
2017-09-17T02:01:25.879Z,100
2017-09-17T02:02:26.619Z,100
2017-09-17T02:03:27.340Z,100
2017-09-17T02:04:28.059Z,100
2017-09-17T02:05:28.778Z,100
2017-09-17T02:06:29.498Z,100
2017-09-17T02:07:30.212Z,100
2017-09-17T02:08:30.956Z,100
2017-09-17T02:09:31.673Z,100
2017-09-17T02:10:32.412Z,100
2017-09-17T02:11:33.128Z,100
2017-09-17T02:12:33.866Z,100
2017-09-17T02:13:34.607Z,100
2017-09-17T02:14:35.348Z,100
2017-09-17T02:15:36.091Z,100
2017-09-17T02:16:36.806Z,100
2017-09-17T02:17:37.526Z,100
2017-09-17T02:18:38.266Z,100
2017-09-17T02:19:38.985Z,100
2017-09-17T02:20:39.723Z,100
2017-09-17T02:21:40.461Z,100
2017-09-17T02:22:41.178Z,100
2017-09-17T02:23:41.898Z,100
2017-09-17T02:24:42.617Z,100
2017-09-17T02:25:43.333Z,100
2017-09-17T02:26:44.074Z,100
2017-09-17T02:27:44.793Z,100
2017-09-17T02:28:45.513Z,100
2017-09-17T02:29:46.232Z,100
2017-09-17T02:30:46.958Z,100
2017-09-17T02:31:47.687Z,100
2017-09-17T02:32:48.408Z,100
2017-09-17T02:33:49.143Z,100
2017-09-17T02:34:49.881Z,100
2017-09-17T02:35:50.602Z,100
2017-09-17T02:36:51.321Z,100
2017-09-17T02:37:52.037Z,100
2017-09-17T02:38:52.755Z,100
2017-09-17T02:39:53.494Z,100
2017-09-17T02:40:54.233Z,100
2017-09-17T02:41:54.950Z,100
2017-09-17T02:42:55.669Z,100
2017-09-17T02:43:56.384Z,100
2017-09-17T02:44:57.104Z,100
2017-09-17T02:45:57.821Z,100
2017-09-17T02:46:58.542Z,100
2017-09-17T02:47:59.257Z,100
2017-09-17T02:48:59.976Z,100
2017-09-17T02:50:00.696Z,100
2017-09-17T02:51:01.415Z,100
2017-09-17T02:52:02.130Z,100
2017-09-17T02:53:02.847Z,100
2017-09-17T02:54:03.592Z,100
2017-09-17T02:55:04.331Z,100
2017-09-17T02:56:05.071Z,100
2017-09-17T02:57:05.789Z,100
2017-09-17T02:58:06.510Z,100
2017-09-17T02:59:07.228Z,100
2017-09-17T03:00:07.944Z,100
2017-09-17T03:01:08.660Z,100
2017-09-17T03:02:09.377Z,100
2017-09-17T03:03:10.096Z,100
2017-09-17T03:04:10.816Z,100
2017-09-17T03:05:11.535Z,100
2017-09-17T03:06:12.253Z,100
2017-09-17T03:07:12.973Z,100
2017-09-17T03:08:13.690Z,100
2017-09-17T03:09:14.408Z,100
2017-09-17T03:10:15.124Z,100
2017-09-17T03:11:15.841Z,100
2017-09-17T03:12:16.560Z,100
2017-09-17T03:13:17.280Z,100
2017-09-17T03:14:17.998Z,100
2017-09-17T03:15:18.717Z,100
2017-09-17T03:16:19.435Z,100
2017-09-17T03:17:20.154Z,100
2017-09-17T03:18:20.874Z,100
2017-09-17T03:19:21.595Z,100
2017-09-17T03:20:22.341Z,100
2017-09-17T03:21:23.032Z,100
2017-09-17T03:22:23.748Z,100
2017-09-17T03:23:24.490Z,100
2017-09-17T03:24:25.209Z,100
2017-09-17T03:25:25.927Z,100
2017-09-17T03:26:26.647Z,100
2017-09-17T03:27:27.366Z,100
2017-09-17T03:28:28.081Z,100
2017-09-17T03:29:28.800Z,100
2017-09-17T03:30:29.538Z,100
2017-09-17T03:31:30.256Z,100
2017-09-17T03:32:30.976Z,100
2017-09-17T03:33:31.717Z,100
2017-09-17T03:34:32.456Z,100
2017-09-17T03:35:33.173Z,100
2017-09-17T03:36:33.891Z,100
2017-09-17T03:37:34.609Z,100
2017-09-17T03:38:35.327Z,100
2017-09-17T03:39:36.048Z,100
2017-09-17T03:40:36.767Z,100
2017-09-17T03:41:37.508Z,100
2017-09-17T03:42:38.225Z,100
2017-09-17T03:43:38.964Z,100
2017-09-17T03:44:39.684Z,100
2017-09-17T03:45:40.402Z,100
2017-09-17T03:46:41.118Z,100
2017-09-17T03:47:41.838Z,100
2017-09-17T03:48:42.558Z,100
2017-09-17T03:49:43.274Z,100
2017-09-17T03:50:43.994Z,100
2017-09-17T03:51:44.710Z,100
2017-09-17T03:52:45.426Z,100
2017-09-17T03:53:46.144Z,100
2017-09-17T03:54:46.864Z,100
2017-09-17T03:55:47.582Z,100
2017-09-17T03:56:48.300Z,100
2017-09-17T03:57:49.016Z,100
2017-09-17T03:58:49.733Z,100
2017-09-17T03:59:50.473Z,100
2017-09-17T04:00:51.190Z,100
2017-09-17T04:01:51.910Z,100
2017-09-17T04:02:52.650Z,100
2017-09-17T04:03:53.369Z,100
2017-09-17T04:04:54.096Z,100
2017-09-17T04:05:54.827Z,100
2017-09-17T04:06:55.546Z,100
2017-09-17T04:07:56.263Z,100
2017-09-17T04:08:56.981Z,100
2017-09-17T04:09:57.701Z,100
2017-09-17T04:10:58.419Z,100
2017-09-17T04:11:59.137Z,100
2017-09-17T04:12:59.876Z,100
2017-09-17T04:14:00.596Z,100
2017-09-17T04:15:01.335Z,100
2017-09-17T04:16:02.054Z,100
2017-09-17T04:17:02.790Z,100
2017-09-17T04:18:03.492Z,100
2017-09-17T04:19:04.211Z,100
2017-09-17T04:20:04.930Z,100
2017-09-17T04:21:05.650Z,100
2017-09-17T04:22:06.391Z,100
2017-09-17T04:23:07.130Z,100
2017-09-17T04:24:07.847Z,100
2017-09-17T04:25:08.568Z,100
2017-09-17T04:26:09.309Z,100
2017-09-17T04:27:10.047Z,100
2017-09-17T04:28:10.784Z,100
2017-09-17T04:29:11.503Z,100
2017-09-17T04:30:12.222Z,100
2017-09-17T04:31:12.941Z,100
2017-09-17T04:32:13.660Z,100
2017-09-17T04:33:14.405Z,100
2017-09-17T04:34:15.145Z,100
2017-09-17T04:35:15.862Z,100
2017-09-17T04:36:16.600Z,100
2017-09-17T04:37:17.320Z,100
2017-09-17T04:38:18.035Z,100
2017-09-17T04:39:18.776Z,100
2017-09-17T04:40:19.511Z,100
2017-09-17T04:41:20.250Z,100
2017-09-17T04:42:20.972Z,100
2017-09-17T04:43:21.706Z,100
2017-09-17T04:44:22.449Z,100
2017-09-17T04:45:23.188Z,100
2017-09-17T04:46:23.906Z,100
2017-09-17T04:47:24.626Z,100
2017-09-17T04:48:25.367Z,100
2017-09-17T04:49:26.085Z,100
2017-09-17T04:50:26.826Z,100
2017-09-17T04:51:27.545Z,100
2017-09-17T04:52:28.267Z,100
2017-09-17T04:53:29.002Z,100
2017-09-17T04:54:29.722Z,100
2017-09-17T04:55:30.442Z,100
2017-09-17T04:56:31.163Z,100
2017-09-17T04:57:31.880Z,100
2017-09-17T04:58:32.599Z,100
2017-09-17T04:59:33.315Z,100
2017-09-17T05:00:34.058Z,100
2017-09-17T05:01:34.804Z,100
2017-09-17T05:02:35.517Z,100
2017-09-17T05:03:36.239Z,100
2017-09-17T05:04:36.960Z,100
2017-09-17T05:05:37.680Z,100
2017-09-17T05:06:38.399Z,100
2017-09-17T05:07:39.143Z,100
2017-09-17T05:08:39.860Z,100
2017-09-17T05:09:40.603Z,100
2017-09-17T05:10:41.320Z,100
2017-09-17T05:11:42.045Z,100
2017-09-17T05:12:42.768Z,100
2017-09-17T05:13:43.485Z,100
2017-09-17T05:14:44.225Z,100
2017-09-17T05:15:44.943Z,100
2017-09-17T05:16:45.667Z,100
2017-09-17T05:17:46.387Z,100
2017-09-17T05:18:47.128Z,100
2017-09-17T05:19:47.849Z,100
2017-09-17T05:20:48.572Z,100
2017-09-17T05:21:49.295Z,100
2017-09-17T05:22:50.037Z,100
2017-09-17T05:23:50.781Z,100
2017-09-17T05:24:51.527Z,100
2017-09-17T05:25:52.245Z,100
2017-09-17T05:26:52.966Z,100
2017-09-17T05:27:53.709Z,100
2017-09-17T05:28:54.431Z,100
2017-09-17T05:29:55.154Z,100
2017-09-17T05:30:55.907Z,100
2017-09-17T05:31:56.617Z,100
2017-09-17T05:32:57.340Z,100
2017-09-17T05:33:58.063Z,100
2017-09-17T05:34:58.805Z,100
2017-09-17T05:35:59.548Z,100
2017-09-17T05:37:00.270Z,100
2017-09-17T05:38:00.994Z,100
2017-09-17T05:39:01.736Z,100
2017-09-17T05:40:02.483Z,100
2017-09-17T05:41:03.227Z,100
2017-09-17T05:42:03.952Z,100
2017-09-17T05:43:04.684Z,100
2017-09-17T05:44:05.424Z,100
2017-09-17T05:45:06.146Z,100
2017-09-17T05:46:06.870Z,100
2017-09-17T05:47:07.592Z,100
2017-09-17T05:48:08.317Z,100
2017-09-17T05:49:09.038Z,100
2017-09-17T05:50:09.759Z,100
2017-09-17T05:51:10.484Z,100
2017-09-17T05:52:11.231Z,100
2017-09-17T05:53:11.951Z,100
2017-09-17T05:54:12.675Z,100
2017-09-17T05:55:13.400Z,100
2017-09-17T05:56:14.125Z,100
2017-09-17T05:57:14.869Z,100
2017-09-17T05:58:15.593Z,100
2017-09-17T05:59:16.316Z,100
2017-09-17T06:00:17.041Z,100
2017-09-17T06:01:17.770Z,100
2017-09-17T06:02:18.484Z,100
2017-09-17T06:03:19.230Z,100
2017-09-17T06:04:19.955Z,100
2017-09-17T06:05:20.678Z,100
2017-09-17T06:06:21.403Z,100
2017-09-17T06:07:22.148Z,100
2017-09-17T06:08:22.872Z,100
2017-09-17T06:09:23.592Z,100
2017-09-17T06:10:24.318Z,100
2017-09-17T06:11:25.065Z,100
2017-09-17T06:12:25.792Z,100
2017-09-17T06:13:26.517Z,100
2017-09-17T06:14:27.239Z,100
2017-09-17T06:15:27.962Z,100
2017-09-17T06:16:28.690Z,100
2017-09-17T06:17:29.416Z,100
2017-09-17T06:18:30.145Z,100
2017-09-17T06:19:30.867Z,100
2017-09-17T06:20:31.593Z,100
2017-09-17T06:21:32.319Z,100
2017-09-17T06:22:33.062Z,100
2017-09-17T06:23:33.787Z,100
2017-09-17T06:24:34.512Z,100
2017-09-17T06:25:35.240Z,100
2017-09-17T06:26:35.985Z,100
2017-09-17T06:27:36.732Z,100
2017-09-17T06:28:37.482Z,100
2017-09-17T06:29:38.209Z,100
2017-09-17T06:30:38.955Z,100
2017-09-17T06:31:39.681Z,100
2017-09-17T06:32:40.410Z,100
2017-09-17T06:33:41.135Z,100
2017-09-17T06:34:41.858Z,100
2017-09-17T06:35:42.589Z,100
2017-09-17T06:36:43.314Z,100
2017-09-17T06:37:44.042Z,100
2017-09-17T06:38:44.770Z,99
2017-09-17T06:39:45.495Z,98
2017-09-17T06:40:46.220Z,98
2017-09-17T06:41:46.963Z,96
2017-09-17T06:42:47.713Z,96
2017-09-17T06:43:48.439Z,96
2017-09-17T06:44:49.170Z,94
2017-09-17T06:45:49.920Z,93
2017-09-17T06:46:50.662Z,93
2017-09-17T06:47:51.411Z,92
2017-09-17T06:48:52.137Z,92
2017-09-17T06:49:52.868Z,90
2017-09-17T06:50:53.586Z,90
2017-09-17T06:51:54.318Z,90
2017-09-17T06:52:55.040Z,89
2017-09-17T06:53:55.766Z,90
2017-09-17T06:54:56.515Z,89
2017-09-17T06:55:57.244Z,89
2017-09-17T06:56:57.968Z,89
2017-09-17T06:57:58.698Z,88
2017-09-17T06:58:59.424Z,89
2017-09-17T07:00:00.150Z,88
2017-09-17T07:01:00.879Z,88
2017-09-17T07:02:01.624Z,87
2017-09-17T07:03:02.353Z,87
2017-09-17T07:04:03.102Z,85
2017-09-17T07:05:03.830Z,85
2017-09-17T07:06:04.559Z,85
2017-09-17T07:07:05.314Z,85
2017-09-17T07:08:06.066Z,84
2017-09-17T07:09:06.794Z,83
2017-09-17T07:10:07.522Z,81
2017-09-17T07:11:08.253Z,81
2017-09-17T07:12:08.986Z,81
2017-09-17T07:13:09.716Z,81
2017-09-17T07:14:10.447Z,80
2017-09-17T07:15:11.175Z,82
2017-09-17T07:16:11.906Z,79
2017-09-17T07:17:12.638Z,79
2017-09-17T07:18:13.371Z,79
2017-09-17T07:19:14.102Z,78
2017-09-17T07:20:14.836Z,76
2017-09-17T07:21:15.588Z,75
2017-09-17T07:22:16.322Z,74
2017-09-17T07:23:17.056Z,75
2017-09-17T07:24:17.787Z,75
2017-09-17T07:25:18.520Z,77
2017-09-17T07:26:19.279Z,79
2017-09-17T07:27:20.026Z,80
2017-09-17T07:28:20.758Z,80
2017-09-17T07:29:21.491Z,82
2017-09-17T07:30:22.247Z,83
2017-09-17T07:31:22.977Z,82
2017-09-17T07:32:23.706Z,82
2017-09-17T07:33:24.449Z,81
2017-09-17T07:34:25.166Z,82
2017-09-17T07:35:25.896Z,82
2017-09-17T07:36:26.626Z,82
2017-09-17T07:37:27.355Z,83
2017-09-17T07:38:28.107Z,83
2017-09-17T07:39:28.860Z,85
2017-09-17T07:40:29.590Z,85
2017-09-17T07:41:30.320Z,86
2017-09-17T07:42:31.049Z,89
2017-09-17T07:43:31.777Z,88
2017-09-17T07:44:32.509Z,88
2017-09-17T07:45:33.237Z,88
2017-09-17T07:46:33.984Z,88
2017-09-17T07:47:34.715Z,88
2017-09-17T07:48:35.467Z,88
2017-09-17T07:49:36.196Z,88
2017-09-17T07:50:36.921Z,89
2017-09-17T07:51:37.648Z,88
2017-09-17T07:52:38.376Z,89
2017-09-17T07:53:39.101Z,89
2017-09-17T07:54:39.850Z,89
2017-09-17T07:55:40.580Z,90
2017-09-17T07:56:41.326Z,92
2017-09-17T07:57:42.053Z,91
2017-09-17T07:58:42.782Z,91
2017-09-17T07:59:43.532Z,92
2017-09-17T08:00:44.257Z,93
2017-09-17T08:01:45.012Z,94
2017-09-17T08:02:45.736Z,94
2017-09-17T08:03:46.465Z,91
2017-09-17T08:04:47.218Z,90
2017-09-17T08:05:47.967Z,87
2017-09-17T08:06:48.700Z,86
2017-09-17T08:07:49.427Z,84
2017-09-17T08:08:50.186Z,82
2017-09-17T08:09:50.914Z,79
2017-09-17T08:10:51.672Z,77
2017-09-17T08:11:52.404Z,75
2017-09-17T08:12:53.139Z,75
2017-09-17T08:13:53.895Z,75
2017-09-17T08:14:54.627Z,73
2017-09-17T08:15:55.364Z,72
2017-09-17T08:16:56.102Z,70
2017-09-17T08:17:56.859Z,67
2017-09-17T08:18:57.617Z,67
2017-09-17T08:19:58.373Z,66
2017-09-17T08:20:59.132Z,67
2017-09-17T08:21:59.890Z,66
2017-09-17T08:23:00.625Z,67
2017-09-17T08:24:01.362Z,66
2017-09-17T08:25:02.101Z,67
2017-09-17T08:26:02.837Z,67
2017-09-17T08:27:03.575Z,69
2017-09-17T08:28:04.313Z,68
2017-09-17T08:29:05.052Z,67
2017-09-17T08:30:05.788Z,67
2017-09-17T08:31:06.527Z,66
2017-09-17T08:32:07.263Z,66
2017-09-17T08:33:07.998Z,65
2017-09-17T08:34:08.736Z,65
2017-09-17T08:35:09.495Z,65
2017-09-17T08:36:10.233Z,65
2017-09-17T08:37:10.997Z,65
2017-09-17T08:38:11.739Z,66
2017-09-17T08:39:12.477Z,65
2017-09-17T08:40:13.237Z,65
2017-09-17T08:41:13.982Z,66
2017-09-17T08:42:14.723Z,66
2017-09-17T08:43:15.468Z,66
2017-09-17T08:44:16.230Z,65
2017-09-17T08:45:16.974Z,63
2017-09-17T08:46:17.721Z,62
2017-09-17T08:47:18.460Z,62
2017-09-17T08:48:19.204Z,61
2017-09-17T08:49:19.951Z,59
2017-09-17T08:50:20.694Z,62
2017-09-17T08:51:21.439Z,62
2017-09-17T08:52:22.181Z,60
2017-09-17T08:53:22.919Z,60
2017-09-17T08:54:23.664Z,58
2017-09-17T08:55:24.405Z,59
2017-09-17T08:56:25.168Z,59
2017-09-17T08:57:25.911Z,59
2017-09-17T08:58:26.649Z,57
2017-09-17T08:59:27.388Z,58
2017-09-17T09:00:28.149Z,59
2017-09-17T09:01:28.891Z,60
2017-09-17T09:02:29.631Z,62
2017-09-17T09:03:30.370Z,63
2017-09-17T09:04:31.111Z,64
2017-09-17T09:05:31.853Z,63
2017-09-17T09:06:32.594Z,62
2017-09-17T09:07:33.334Z,60
2017-09-17T09:08:34.074Z,60
2017-09-17T09:09:34.812Z,59
2017-09-17T09:10:35.553Z,58
2017-09-17T09:11:36.297Z,56
2017-09-17T09:12:37.037Z,54
2017-09-17T09:13:37.778Z,55
2017-09-17T09:14:38.518Z,55
2017-09-17T09:15:39.261Z,54
2017-09-17T09:16:40.000Z,55
2017-09-17T09:17:40.739Z,57
2017-09-17T09:18:41.502Z,58
2017-09-17T09:19:42.240Z,58
2017-09-17T09:20:42.981Z,59
2017-09-17T09:21:43.719Z,58
2017-09-17T09:22:44.458Z,57
2017-09-17T09:23:45.195Z,57
2017-09-17T09:24:45.934Z,58
2017-09-17T09:25:46.675Z,59
2017-09-17T09:26:47.433Z,62
2017-09-17T09:27:48.176Z,63
2017-09-17T09:28:48.911Z,63
2017-09-17T09:29:49.653Z,64
2017-09-17T09:30:50.393Z,65
2017-09-17T09:31:51.131Z,65
2017-09-17T09:32:51.876Z,65
2017-09-17T09:33:52.615Z,64
2017-09-17T09:34:53.377Z,64
2017-09-17T09:35:54.116Z,62
2017-09-17T09:36:54.857Z,61
2017-09-17T09:37:55.622Z,60
2017-09-17T09:38:56.389Z,60
2017-09-17T09:39:57.155Z,60
2017-09-17T09:40:57.899Z,60
2017-09-17T09:41:58.646Z,60
2017-09-17T09:42:59.383Z,59
2017-09-17T09:44:00.123Z,57
2017-09-17T09:45:00.865Z,57
2017-09-17T09:46:01.605Z,56
2017-09-17T09:47:02.343Z,56
2017-09-17T09:48:03.109Z,56
2017-09-17T09:49:03.850Z,56
2017-09-17T09:50:04.590Z,55
2017-09-17T09:51:05.334Z,55
2017-09-17T09:52:06.075Z,54
2017-09-17T09:53:06.817Z,53
2017-09-17T09:54:07.561Z,52
2017-09-17T09:55:08.304Z,52
2017-09-17T09:56:09.043Z,50
2017-09-17T09:57:09.787Z,50
2017-09-17T09:58:10.528Z,49
2017-09-17T09:59:11.268Z,49
2017-09-17T10:00:12.030Z,52
2017-09-17T10:01:12.775Z,54
2017-09-17T10:02:13.516Z,53
2017-09-17T10:03:14.257Z,53
2017-09-17T10:04:15.025Z,52
2017-09-17T10:05:15.763Z,53
2017-09-17T10:06:16.503Z,51
2017-09-17T10:07:17.249Z,52
2017-09-17T10:08:17.990Z,51
2017-09-17T10:09:18.731Z,51
2017-09-17T10:10:19.478Z,50
2017-09-17T10:11:20.220Z,50
2017-09-17T10:12:20.962Z,51
2017-09-17T10:13:21.702Z,52
2017-09-17T10:14:22.441Z,53
2017-09-17T10:15:23.181Z,57
2017-09-17T10:16:23.922Z,57
2017-09-17T10:17:24.662Z,58
2017-09-17T10:18:25.403Z,59
2017-09-17T10:19:26.141Z,60
2017-09-17T10:20:26.880Z,61
2017-09-17T10:21:27.618Z,59
2017-09-17T10:22:28.357Z,60
2017-09-17T10:23:29.094Z,58
2017-09-17T10:24:29.838Z,59
2017-09-17T10:25:30.573Z,58
2017-09-17T10:26:31.310Z,59
2017-09-17T10:27:32.047Z,59
2017-09-17T10:28:32.785Z,61
2017-09-17T10:29:33.527Z,62
2017-09-17T10:30:34.270Z,63
2017-09-17T10:31:35.010Z,64
2017-09-17T10:32:35.771Z,63
2017-09-17T10:33:36.514Z,62
2017-09-17T10:34:37.273Z,61
2017-09-17T10:35:38.016Z,59
2017-09-17T10:36:38.758Z,58
2017-09-17T10:37:39.497Z,56
2017-09-17T10:38:40.259Z,56
2017-09-17T10:39:40.997Z,56
2017-09-17T10:40:41.742Z,57
2017-09-17T10:41:42.478Z,56
2017-09-17T10:42:43.218Z,57
2017-09-17T10:43:43.979Z,59
2017-09-17T10:44:44.713Z,59
2017-09-17T10:45:45.479Z,61
2017-09-17T10:46:46.218Z,61
2017-09-17T10:47:46.956Z,62
2017-09-17T10:48:47.707Z,64
2017-09-17T10:49:48.464Z,64
2017-09-17T10:50:49.221Z,62
2017-09-17T10:51:49.962Z,62
2017-09-17T10:52:50.699Z,63
2017-09-17T10:53:51.436Z,63
2017-09-17T10:54:52.175Z,63
2017-09-17T10:55:52.936Z,63
2017-09-17T10:56:53.672Z,64
2017-09-17T10:57:54.410Z,65
2017-09-17T10:58:55.151Z,65
2017-09-17T10:59:55.887Z,65
2017-09-17T11:00:56.618Z,65
2017-09-17T11:01:57.355Z,65
2017-09-17T11:02:58.092Z,64
2017-09-17T11:03:58.827Z,61
2017-09-17T11:04:59.563Z,63
2017-09-17T11:06:00.297Z,62
2017-09-17T11:07:01.037Z,62
2017-09-17T11:08:01.760Z,62
2017-09-17T11:09:02.512Z,63
2017-09-17T11:10:03.244Z,64
2017-09-17T11:11:03.979Z,64
2017-09-17T11:12:04.735Z,65
2017-09-17T11:13:05.469Z,65
2017-09-17T11:14:06.202Z,66
2017-09-17T11:15:06.937Z,67
2017-09-17T11:16:07.670Z,67
2017-09-17T11:17:08.400Z,67
2017-09-17T11:18:09.134Z,68
2017-09-17T11:19:09.863Z,67
2017-09-17T11:20:10.618Z,66
2017-09-17T11:21:11.350Z,68
2017-09-17T11:22:12.084Z,68
2017-09-17T11:23:12.816Z,68
2017-09-17T11:24:13.548Z,69
2017-09-17T11:25:14.282Z,69
2017-09-17T11:26:15.013Z,68
2017-09-17T11:27:15.744Z,67
2017-09-17T11:28:16.475Z,67
2017-09-17T11:29:17.232Z,65
2017-09-17T11:30:17.968Z,65
2017-09-17T11:31:18.695Z,65
2017-09-17T11:32:19.455Z,64
2017-09-17T11:33:20.185Z,65
2017-09-17T11:34:20.917Z,67
2017-09-17T11:35:21.647Z,64
2017-09-17T11:36:22.382Z,62
2017-09-17T11:37:23.116Z,60
2017-09-17T11:38:23.846Z,60
2017-09-17T11:39:24.581Z,60
2017-09-17T11:40:25.312Z,60
2017-09-17T11:41:26.042Z,62
2017-09-17T11:42:26.777Z,62
2017-09-17T11:43:27.506Z,62
2017-09-17T11:44:28.237Z,63
2017-09-17T11:45:28.968Z,63
2017-09-17T11:46:29.697Z,63
2017-09-17T11:47:30.430Z,63
2017-09-17T11:48:31.184Z,63
2017-09-17T11:49:31.920Z,61
2017-09-17T11:50:32.651Z,59
2017-09-17T11:51:33.383Z,59
2017-09-17T11:52:34.118Z,58
2017-09-17T11:53:34.850Z,60
2017-09-17T11:54:35.584Z,60
2017-09-17T11:55:36.314Z,59
2017-09-17T11:56:37.049Z,60
2017-09-17T11:57:37.822Z,60
2017-09-17T11:58:38.554Z,62
2017-09-17T11:59:39.305Z,62
2017-09-17T12:00:40.037Z,62
2017-09-17T12:01:40.765Z,62
2017-09-17T12:02:41.503Z,62
2017-09-17T12:03:42.226Z,62
2017-09-17T12:04:42.976Z,62
2017-09-17T12:05:43.709Z,62
2017-09-17T12:06:44.436Z,63
2017-09-17T12:07:45.167Z,64
2017-09-17T12:08:45.900Z,64
2017-09-17T12:09:46.628Z,64
2017-09-17T12:10:47.356Z,64
2017-09-17T12:11:48.108Z,63
2017-09-17T12:12:48.836Z,64
2017-09-17T12:13:49.571Z,63
2017-09-17T12:14:50.301Z,63
2017-09-17T12:15:51.033Z,61
2017-09-17T12:16:51.788Z,60
2017-09-17T12:17:52.519Z,61
2017-09-17T12:18:53.247Z,62
2017-09-17T12:19:53.979Z,63
2017-09-17T12:20:54.721Z,63
2017-09-17T12:21:55.458Z,64
2017-09-17T12:22:56.210Z,64
2017-09-17T12:23:56.937Z,64
2017-09-17T12:24:57.670Z,64
2017-09-17T12:25:58.406Z,63
2017-09-17T12:26:59.131Z,63
2017-09-17T12:27:59.867Z,62
2017-09-17T12:29:00.622Z,61
2017-09-17T12:30:01.357Z,60
2017-09-17T12:31:02.111Z,57
2017-09-17T12:32:02.847Z,52
2017-09-17T12:33:03.594Z,49
2017-09-17T12:34:04.342Z,49
2017-09-17T12:35:05.080Z,49
2017-09-17T12:36:05.822Z,50
2017-09-17T12:37:06.584Z,52
2017-09-17T12:38:07.346Z,53
2017-09-17T12:39:08.088Z,53
2017-09-17T12:40:08.827Z,52
2017-09-17T12:41:09.567Z,52
2017-09-17T12:42:10.308Z,52
2017-09-17T12:43:11.071Z,53
2017-09-17T12:44:11.834Z,52
2017-09-17T12:45:12.576Z,52
2017-09-17T12:46:13.320Z,51
2017-09-17T12:47:14.064Z,50
2017-09-17T12:48:14.809Z,52
2017-09-17T12:49:15.549Z,48
2017-09-17T12:50:16.290Z,49
2017-09-17T12:51:17.051Z,49
2017-09-17T12:52:17.792Z,48
2017-09-17T12:53:18.529Z,47
2017-09-17T12:54:19.267Z,48
2017-09-17T12:55:20.027Z,49
2017-09-17T12:56:20.765Z,50
2017-09-17T12:57:21.504Z,51
2017-09-17T12:58:22.265Z,50
2017-09-17T12:59:23.004Z,50
2017-09-17T13:00:23.744Z,48
2017-09-17T13:01:24.480Z,47
2017-09-17T13:02:25.218Z,46
2017-09-17T13:03:25.961Z,46
2017-09-17T13:04:26.701Z,46
2017-09-17T13:05:27.442Z,45
2017-09-17T13:06:28.202Z,45
2017-09-17T13:07:28.941Z,45
2017-09-17T13:08:29.684Z,45
2017-09-17T13:09:30.444Z,45
2017-09-17T13:10:31.184Z,45
2017-09-17T13:11:31.945Z,44
2017-09-17T13:12:32.686Z,44
2017-09-17T13:13:33.426Z,44
2017-09-17T13:14:34.168Z,45
2017-09-17T13:15:34.906Z,45
2017-09-17T13:16:35.648Z,46
2017-09-17T13:17:36.388Z,45
2017-09-17T13:18:37.151Z,46
2017-09-17T13:19:37.890Z,46
2017-09-17T13:20:38.627Z,48
2017-09-17T13:21:39.364Z,48
2017-09-17T13:22:40.099Z,49
2017-09-17T13:23:40.834Z,50
2017-09-17T13:24:41.571Z,51
2017-09-17T13:25:42.307Z,52
2017-09-17T13:26:43.044Z,52
2017-09-17T13:27:43.776Z,54
2017-09-17T13:28:44.536Z,55
2017-09-17T13:29:45.277Z,57
2017-09-17T13:30:46.035Z,58
2017-09-17T13:31:46.774Z,59
2017-09-17T13:32:47.544Z,59
2017-09-17T13:33:48.250Z,59
2017-09-17T13:34:49.002Z,60
2017-09-17T13:35:49.737Z,60
2017-09-17T13:36:50.466Z,60
2017-09-17T13:37:51.203Z,60
2017-09-17T13:38:51.938Z,62
2017-09-17T13:39:52.666Z,61
2017-09-17T13:40:53.397Z,61
2017-09-17T13:41:54.133Z,61
2017-09-17T13:42:54.860Z,61
2017-09-17T13:43:55.615Z,62
2017-09-17T13:44:56.344Z,62
2017-09-17T13:45:57.077Z,63
2017-09-17T13:46:57.809Z,63
2017-09-17T13:47:58.537Z,62
2017-09-17T13:48:59.266Z,64
2017-09-17T13:50:00.000Z,63
2017-09-17T13:51:00.729Z,64
2017-09-17T13:52:01.459Z,65
2017-09-17T13:53:02.190Z,66
2017-09-17T13:54:02.917Z,66
2017-09-17T13:55:03.645Z,67
2017-09-17T13:56:04.375Z,67
2017-09-17T13:57:05.102Z,67
2017-09-17T13:58:05.833Z,67
2017-09-17T13:59:06.562Z,67
2017-09-17T14:00:07.295Z,67
2017-09-17T14:01:08.025Z,68
2017-09-17T14:02:08.750Z,68
2017-09-17T14:03:09.482Z,67
2017-09-17T14:04:10.212Z,67
2017-09-17T14:05:10.943Z,66
2017-09-17T14:06:11.678Z,63
2017-09-17T14:07:12.428Z,64
2017-09-17T14:08:13.155Z,64
2017-09-17T14:09:13.889Z,65
2017-09-17T14:10:14.621Z,62
2017-09-17T14:11:15.351Z,59
2017-09-17T14:12:16.085Z,57
2017-09-17T14:13:16.821Z,56